Time;durP1;ratioP1;P1;durP2;ratioP2;P2;SDS_P1;SDS_P2;PMS_P1;PMS_P2;Temp;Humidity;BMP_temperature;BMP_pressure;BME280_temperature;BME280_humidity;BME280_pressure;Samples;Min_cycle;Max_cycle;Signal;HPM_P1;HPM_P2
2022/04/16 00:01:05;;;;;;;29.80;17.40;;;9.00;99.90;;;;;;4999737;28;20244;-86
2022/04/16 00:03:33;;;;;;;36.60;19.03;;;8.90;99.90;;;;;;5006877;28;20791;-87
2022/04/16 00:06:01;;;;;;;33.70;20.60;;;8.80;99.90;;;;;;5002236;28;20211;-86
2022/04/16 00:08:29;;;;;;;36.97;21.33;;;8.70;99.90;;;;;;5005152;28;20264;-88
2022/04/16 00:10:56;;;;;;;39.70;20.03;;;8.60;99.90;;;;;;5000162;28;20569;-88
2022/04/16 00:13:23;;;;;;;33.20;19.33;;;8.60;99.90;;;;;;4999100;28;20201;-88
2022/04/16 00:15:52;;;;;;;34.50;20.00;;;8.50;99.90;;;;;;5004214;28;20234;-87
2022/04/16 00:18:20;;;;;;;35.27;19.67;;;8.50;99.90;;;;;;4994318;28;20278;-87
2022/04/16 00:20:49;;;;;;;36.33;18.40;;;8.40;99.90;;;;;;5006837;28;20680;-88
2022/04/16 00:23:19;;;;;;;34.77;19.73;;;8.30;99.90;;;;;;5008554;28;20282;-87
2022/04/16 00:25:48;;;;;;;33.20;17.83;;;8.20;99.90;;;;;;5004727;28;20231;-90
2022/04/16 00:28:16;;;;;;;36.13;19.67;;;8.30;99.90;;;;;;5006194;28;20576;-87
2022/04/16 00:30:44;;;;;;;36.70;19.97;;;8.20;99.90;;;;;;5006997;28;20726;-87
2022/04/16 00:33:13;;;;;;;34.70;19.33;;;8.10;99.90;;;;;;5004207;28;20306;-88
2022/04/16 00:35:44;;;;;;;36.27;20.77;;;8.10;99.90;;;;;;5008903;28;20201;-85
2022/04/16 00:38:14;;;;;;;39.90;21.63;;;8.10;99.90;;;;;;5009833;28;20240;-86
2022/04/16 00:40:52;;;;;;;36.80;20.10;;;8.00;99.90;;;;;;5018368;28;20203;-88
2022/04/16 00:43:27;;;;;;;36.43;20.57;;;7.90;99.90;;;;;;5023223;28;20211;-86
2022/04/16 00:45:55;;;;;;;33.40;19.37;;;7.80;99.90;;;;;;5034616;28;20206;-87
2022/04/16 00:48:23;;;;;;;37.43;20.00;;;7.80;99.90;;;;;;5027508;28;20217;-85
2022/04/16 00:50:51;;;;;;;36.73;19.73;;;7.70;99.90;;;;;;5019410;28;20295;-86
2022/04/16 00:53:20;;;;;;;39.07;19.80;;;7.70;99.90;;;;;;5013072;28;20245;-88
2022/04/16 00:55:47;;;;;;;35.83;20.23;;;7.70;99.90;;;;;;5003487;28;20211;-88
2022/04/16 00:58:14;;;;;;;36.67;20.60;;;7.60;99.90;;;;;;5007318;28;20335;-86
2022/04/16 01:00:41;;;;;;;40.10;21.07;;;7.60;99.90;;;;;;5009190;28;20886;-88
2022/04/16 01:03:08;;;;;;;37.37;20.57;;;7.50;99.90;;;;;;5008679;28;20232;-86
2022/04/16 01:05:37;;;;;;;38.93;20.43;;;7.50;99.90;;;;;;5003299;28;20268;-85
2022/04/16 01:08:04;;;;;;;39.23;21.10;;;7.40;99.90;;;;;;5011340;28;20221;-87
2022/04/16 01:10:34;;;;;;;37.03;20.30;;;7.40;99.90;;;;;;5016008;28;20699;-87
2022/04/16 01:13:03;;;;;;;34.63;19.73;;;7.30;99.90;;;;;;5006750;28;20737;-86
2022/04/16 01:15:31;;;;;;;34.40;19.93;;;7.30;99.90;;;;;;5018155;28;20335;-85
2022/04/16 01:17:59;;;;;;;39.30;20.23;;;7.30;99.90;;;;;;5006886;28;20325;-85
2022/04/16 01:20:26;;;;;;;37.37;20.40;;;7.20;99.90;;;;;;5006187;28;20809;-86
2022/04/16 01:22:54;;;;;;;36.27;19.77;;;7.20;99.90;;;;;;5007532;28;20353;-87
2022/04/16 01:25:24;;;;;;;37.53;20.37;;;7.10;99.90;;;;;;5003017;28;20212;-86
2022/04/16 01:27:52;;;;;;;36.63;20.13;;;7.10;99.90;;;;;;5006643;28;20191;-86
2022/04/16 01:30:22;;;;;;;31.90;19.40;;;7.00;99.90;;;;;;5006919;28;20549;-85
2022/04/16 01:32:49;;;;;;;35.70;19.50;;;7.00;99.90;;;;;;5004866;28;20294;-85
2022/04/16 01:35:17;;;;;;;39.73;20.47;;;7.00;99.90;;;;;;5011218;28;20302;-86
2022/04/16 01:37:45;;;;;;;36.83;21.23;;;6.90;99.90;;;;;;5002858;28;20275;-88
2022/04/16 01:40:14;;;;;;;35.50;19.67;;;6.90;99.90;;;;;;5003321;28;20669;-86
2022/04/16 01:42:43;;;;;;;38.53;20.10;;;6.90;99.90;;;;;;4997478;28;20234;-84
2022/04/16 01:45:11;;;;;;;39.10;21.53;;;6.80;99.90;;;;;;5005450;28;20222;-87
2022/04/16 01:47:38;;;;;;;38.87;20.93;;;6.80;99.90;;;;;;5002125;28;20295;-87
2022/04/16 01:50:11;;;;;;;40.47;21.47;;;6.80;99.90;;;;;;5000625;28;20208;-87
2022/04/16 01:52:41;;;;;;;43.43;21.23;;;6.70;99.90;;;;;;4996555;28;20312;-87
2022/04/16 01:55:09;;;;;;;39.87;20.73;;;6.70;99.90;;;;;;5002031;28;20247;-87
2022/04/16 01:57:37;;;;;;;40.27;22.03;;;6.70;99.90;;;;;;5003509;28;20222;-87
2022/04/16 02:00:07;;;;;;;37.60;20.93;;;6.70;99.90;;;;;;5017953;28;20614;-87
2022/04/16 02:02:36;;;;;;;44.30;22.17;;;6.70;99.90;;;;;;4997307;28;20963;-87
2022/04/16 02:05:08;;;;;;;42.90;21.53;;;6.70;99.90;;;;;;5006621;28;20209;-87
2022/04/16 02:07:35;;;;;;;39.87;20.73;;;6.60;99.90;;;;;;5001583;28;20309;-86
2022/04/16 02:10:03;;;;;;;38.37;19.93;;;6.60;99.90;;;;;;4998933;28;20230;-86
2022/04/16 02:12:30;;;;;;;41.17;21.73;;;6.60;99.90;;;;;;5003357;28;20221;-87
2022/04/16 02:14:57;;;;;;;42.30;21.17;;;6.60;99.90;;;;;;4996605;28;20256;-87
2022/04/16 02:17:25;;;;;;;39.90;21.03;;;6.60;99.90;;;;;;5006232;28;20245;-88
2022/04/16 02:19:52;;;;;;;40.33;20.93;;;6.50;99.90;;;;;;5003223;28;20241;-87
2022/04/16 02:22:19;;;;;;;37.57;20.23;;;6.50;99.90;;;;;;5002520;28;20244;-88
2022/04/16 02:24:46;;;;;;;36.17;19.77;;;6.50;99.90;;;;;;5000038;28;20236;-88
2022/04/16 02:27:14;;;;;;;43.00;22.13;;;6.50;99.90;;;;;;5001698;28;20211;-87
2022/04/16 02:29:43;;;;;;;39.63;21.13;;;6.50;99.90;;;;;;4999960;28;20209;-87
2022/04/16 02:32:11;;;;;;;40.97;22.03;;;6.50;99.90;;;;;;4998362;28;20294;-86
2022/04/16 02:34:38;;;;;;;41.87;20.97;;;6.60;99.90;;;;;;5002303;28;20218;-87
2022/04/16 02:37:04;;;;;;;41.77;21.70;;;6.60;99.90;;;;;;5003526;28;20227;-87
2022/04/16 02:39:31;;;;;;;42.73;20.90;;;6.60;99.90;;;;;;5000522;28;20240;-88
2022/04/16 02:41:58;;;;;;;40.20;22.13;;;6.70;99.90;;;;;;5000332;28;20696;-87
2022/04/16 02:47:12;;;;;;;39.83;21.73;;;6.70;99.90;;;;;;4991283;28;20241;-89
2022/04/16 02:49:40;;;;;;;45.03;21.53;;;6.80;99.90;;;;;;5003296;28;20213;-89
2022/04/16 02:52:07;;;;;;;44.80;21.57;;;6.80;99.90;;;;;;5005653;28;20219;-88
2022/04/16 02:54:35;;;;;;;40.87;21.07;;;6.80;99.90;;;;;;5003208;28;20217;-88
2022/04/16 02:57:04;;;;;;;38.93;20.60;;;6.80;99.90;;;;;;5005376;28;20687;-89
2022/04/16 02:59:35;;;;;;;35.93;20.47;;;6.70;99.90;;;;;;5008568;28;20233;-88
2022/04/16 03:02:02;;;;;;;37.40;20.77;;;6.70;99.90;;;;;;5005041;28;20217;-88
2022/04/16 03:04:29;;;;;;;38.60;20.30;;;6.70;99.90;;;;;;5004427;28;20213;-88
2022/04/16 03:06:56;;;;;;;40.10;20.47;;;6.60;99.90;;;;;;5001004;28;20304;-88
2022/04/16 03:09:23;;;;;;;38.43;20.03;;;6.50;99.90;;;;;;4994044;28;20345;-88
2022/04/16 03:11:50;;;;;;;42.70;20.43;;;6.50;99.90;;;;;;5011889;28;20623;-87
2022/04/16 03:17:36;;;;;;;36.23;20.70;;;6.40;99.90;;;;;;4997740;28;20209;-86
2022/04/16 03:19:55;;;;;;;36.07;20.40;;;6.30;99.90;;;;;;5001258;28;20255;-88
2022/04/16 03:22:22;;;;;;;41.47;21.60;;;6.30;99.90;;;;;;5000910;28;20717;-88
2022/04/16 03:24:50;;;;;;;40.27;20.67;;;6.20;99.90;;;;;;5003639;28;20641;-89
2022/04/16 03:27:18;;;;;;;42.17;20.20;;;6.20;99.90;;;;;;5009555;28;20617;-87
2022/04/16 03:29:45;;;;;;;38.63;21.23;;;6.20;99.90;;;;;;4995726;28;20654;-88
2022/04/16 03:32:12;;;;;;;39.03;20.97;;;6.10;99.90;;;;;;5003132;28;20273;-87
2022/04/16 03:34:39;;;;;;;41.43;20.80;;;6.10;99.90;;;;;;5007442;28;20248;-88
2022/04/16 03:37:07;;;;;;;36.80;19.97;;;6.00;99.90;;;;;;4999395;28;20317;-88
2022/04/16 03:39:34;;;;;;;41.70;20.67;;;6.00;99.90;;;;;;5008429;28;20331;-87
2022/04/16 03:42:00;;;;;;;41.70;21.10;;;6.00;99.90;;;;;;5004780;28;20299;-86
2022/04/16 03:44:27;;;;;;;41.53;20.27;;;5.90;99.90;;;;;;5002615;28;20216;-87
2022/04/16 03:46:54;;;;;;;40.93;20.97;;;5.90;99.90;;;;;;5002393;28;20305;-89
2022/04/16 03:49:21;;;;;;;40.43;21.60;;;5.90;99.90;;;;;;5002724;28;20207;-85
2022/04/16 03:51:48;;;;;;;45.17;22.50;;;5.80;99.90;;;;;;5007796;28;20593;-88
2022/04/16 04:00:00;;;;;;;40.97;21.70;;;5.80;99.90;;;;;;5000224;28;20259;-87
2022/04/16 04:02:31;;;;;;;44.97;22.43;;;5.80;99.90;;;;;;5005946;28;20518;-86
2022/04/16 04:04:59;;;;;;;45.17;21.03;;;5.70;99.90;;;;;;5007309;28;20206;-87
2022/04/16 04:07:26;;;;;;;43.37;21.23;;;5.70;99.90;;;;;;5008315;28;20253;-85
2022/04/16 04:09:53;;;;;;;44.10;21.33;;;5.70;99.90;;;;;;5000683;28;20634;-85
2022/04/16 04:12:20;;;;;;;43.53;21.37;;;5.50;99.90;;;;;;5004123;28;20305;-86
2022/04/16 04:14:47;;;;;;;43.80;22.43;;;5.60;99.90;;;;;;5006689;28;20204;-87
2022/04/16 04:17:15;;;;;;;44.63;23.63;;;5.60;99.90;;;;;;5012915;28;20249;-86
2022/04/16 04:19:43;;;;;;;46.30;21.07;;;5.60;99.90;;;;;;5001126;28;20716;-85
2022/04/16 04:22:14;;;;;;;45.97;22.30;;;5.50;99.90;;;;;;5008464;28;20216;-87
2022/04/16 04:24:42;;;;;;;46.27;24.37;;;5.50;99.90;;;;;;5010170;28;20616;-86
2022/04/16 04:27:10;;;;;;;41.50;22.93;;;5.50;99.90;;;;;;5003780;28;20203;-87
2022/04/16 04:29:37;;;;;;;47.40;25.33;;;5.50;99.90;;;;;;5006200;28;20242;-87
2022/04/16 04:32:05;;;;;;;46.03;22.83;;;5.50;99.90;;;;;;5001206;28;20210;-86
2022/04/16 04:34:33;;;;;;;49.53;23.93;;;5.50;99.90;;;;;;5010281;28;20212;-86
2022/04/16 04:36:59;;;;;;;53.10;25.50;;;5.50;99.90;;;;;;5004488;28;20210;-87
2022/04/16 04:39:26;;;;;;;50.93;25.20;;;5.50;99.90;;;;;;5003771;28;20248;-87
2022/04/16 04:41:53;;;;;;;55.03;27.03;;;5.50;99.90;;;;;;5000238;28;20313;-86
2022/04/16 04:44:20;;;;;;;57.97;26.87;;;5.60;99.90;;;;;;4998899;28;20301;-86
2022/04/16 04:46:53;;;;;;;57.57;27.67;;;5.60;99.90;;;;;;5001923;28;20277;-86
2022/04/16 04:49:20;;;;;;;60.73;28.50;;;5.70;99.90;;;;;;4998365;28;20226;-87
2022/04/16 04:51:47;;;;;;;65.60;28.17;;;5.80;99.90;;;;;;5001406;28;20307;-87
2022/04/16 04:54:14;;;;;;;64.67;26.87;;;5.90;99.90;;;;;;5006188;28;20301;-87
2022/04/16 04:56:41;;;;;;;57.93;27.40;;;5.80;99.90;;;;;;4993129;28;20305;-86
2022/04/16 04:59:08;;;;;;;62.93;29.57;;;6.10;99.90;;;;;;5000652;28;20243;-87
2022/04/16 05:01:35;;;;;;;59.50;30.00;;;6.20;99.90;;;;;;5010047;28;20572;-86
2022/04/16 05:04:02;;;;;;;61.00;29.97;;;6.20;99.90;;;;;;4995582;28;20675;-86
2022/04/16 05:06:30;;;;;;;60.43;28.50;;;6.30;99.90;;;;;;5002788;28;20256;-89
2022/04/16 05:08:57;;;;;;;65.13;29.23;;;6.40;99.90;;;;;;5005396;28;20213;-89
2022/04/16 05:11:24;;;;;;;69.93;30.20;;;6.40;99.90;;;;;;5008908;28;20251;-88
2022/04/16 05:13:50;;;;;;;63.83;30.63;;;6.50;99.90;;;;;;4996253;28;20252;-85
2022/04/16 05:16:17;;;;;;;68.17;29.10;;;6.60;99.90;;;;;;5008855;28;20313;-86
2022/04/16 05:18:44;;;;;;;65.50;29.80;;;6.70;99.90;;;;;;5007044;28;20226;-87
2022/04/16 05:21:11;;;;;;;75.40;32.23;;;6.70;99.90;;;;;;5000486;28;20311;-85
2022/04/16 05:23:39;;;;;;;67.07;29.63;;;6.80;99.90;;;;;;5004306;28;20222;-87
2022/04/16 05:26:11;;;;;;;70.30;30.57;;;6.90;99.90;;;;;;5000479;28;20227;-89
2022/04/16 05:28:38;;;;;;;68.70;30.20;;;7.00;99.90;;;;;;5012278;28;20210;-88
2022/04/16 05:31:06;;;;;;;78.87;32.13;;;7.10;99.90;;;;;;4995874;28;20207;-88
2022/04/16 05:36:19;;;;;;;72.60;30.60;;;7.20;99.90;;;;;;5003384;28;20731;-85
2022/04/16 05:38:46;;;;;;;77.57;32.93;;;7.30;99.90;;;;;;5002583;28;20627;-89
2022/04/16 05:41:13;;;;;;;76.77;32.77;;;7.40;99.90;;;;;;5005194;28;20192;-88
2022/04/16 05:43:40;;;;;;;74.20;32.70;;;7.50;99.90;;;;;;5004354;28;20205;-89
2022/04/16 05:46:07;;;;;;;75.63;33.70;;;7.20;99.90;;;;;;5002816;28;20219;-84
2022/04/16 05:48:34;;;;;;;74.90;33.33;;;7.70;99.90;;;;;;5001887;28;20253;-85
2022/04/16 05:51:02;;;;;;;65.93;29.43;;;7.70;99.90;;;;;;5006908;28;20255;-86
2022/04/16 05:53:30;;;;;;;64.73;30.20;;;7.80;99.90;;;;;;5006035;28;20250;-82
2022/04/16 05:55:58;;;;;;;65.87;30.80;;;7.90;99.90;;;;;;5003312;28;20236;-83
2022/04/16 05:58:25;;;;;;;65.30;32.03;;;8.00;99.90;;;;;;4995716;28;20657;-81
2022/04/16 06:00:53;;;;;;;57.97;30.77;;;8.10;99.90;;;;;;4997895;28;20231;-82
2022/04/16 06:03:20;;;;;;;61.53;28.60;;;8.10;99.90;;;;;;4995343;28;20346;-82
2022/04/16 06:05:48;;;;;;;55.40;29.83;;;7.90;99.90;;;;;;5000389;28;20209;-82
2022/04/16 06:08:15;;;;;;;59.23;30.13;;;8.20;99.90;;;;;;5001038;28;20864;-83
2022/04/16 06:10:42;;;;;;;58.50;29.40;;;8.30;99.90;;;;;;4998598;28;20664;-82
2022/04/16 06:13:11;;;;;;;55.13;28.23;;;8.40;99.90;;;;;;4999994;28;20207;-82
2022/04/16 06:15:41;;;;;;;53.80;28.53;;;8.60;99.90;;;;;;4991586;28;20261;-81
2022/04/16 06:18:09;;;;;;;53.83;27.17;;;8.70;99.90;;;;;;5001804;28;20295;-81
2022/04/16 06:20:36;;;;;;;50.47;27.50;;;8.80;99.90;;;;;;4997109;28;20247;-82
2022/04/16 06:23:04;;;;;;;44.63;24.80;;;8.90;99.90;;;;;;5002875;28;20248;-81
2022/04/16 06:25:31;;;;;;;57.67;28.70;;;9.00;99.90;;;;;;4992655;28;20306;-83
2022/04/16 06:27:58;;;;;;;48.87;25.50;;;9.40;99.90;;;;;;4996602;28;20629;-81
2022/04/16 06:30:24;;;;;;;37.90;22.73;;;10.00;99.90;;;;;;4992784;28;20244;-82
2022/04/16 06:32:51;;;;;;;35.03;20.23;;;10.80;99.90;;;;;;5001221;28;20229;-81
2022/04/16 06:35:18;;;;;;;34.03;20.40;;;11.60;99.90;;;;;;4995520;28;20559;-82
2022/04/16 06:37:45;;;;;;;32.87;20.17;;;12.40;99.90;;;;;;5003608;28;20763;-83
2022/04/16 06:40:12;;;;;;;30.33;18.37;;;13.20;99.90;;;;;;4992407;28;20238;-83
2022/04/16 06:42:39;;;;;;;31.07;19.60;;;13.90;99.90;;;;;;5002006;28;20286;-83
2022/04/16 06:45:08;;;;;;;28.60;19.00;;;14.60;99.90;;;;;;4999186;28;20536;-83
2022/04/16 06:47:35;;;;;;;25.27;16.93;;;15.20;99.90;;;;;;5011418;28;20249;-83
2022/04/16 06:50:04;;;;;;;24.95;16.48;;;15.80;99.90;;;;;;5001314;28;20210;-83
2022/04/16 06:52:31;;;;;;;24.55;16.75;;;16.40;99.90;;;;;;5002992;28;20303;-84
2022/04/16 06:55:01;;;;;;;23.90;16.13;;;17.00;99.90;;;;;;4999860;28;20238;-81
2022/04/16 06:57:28;;;;;;;23.85;15.70;;;17.30;99.90;;;;;;5000918;28;20234;-83
2022/04/16 07:00:03;;;;;;;24.80;16.40;;;17.50;99.90;;;;;;5003981;28;20222;-82
2022/04/16 07:02:30;;;;;;;19.63;14.38;;;17.40;99.90;;;;;;4999533;28;20242;-84
2022/04/16 07:04:58;;;;;;;22.33;15.68;;;17.50;99.90;;;;;;5000031;28;20690;-84
2022/04/16 07:07:25;;;;;;;21.75;14.38;;;17.60;99.90;;;;;;4998252;28;20232;-83
2022/04/16 07:09:53;;;;;;;19.40;13.48;;;17.90;99.90;;;;;;4999082;28;20351;-83
2022/04/16 07:12:20;;;;;;;21.73;14.10;;;18.20;99.90;;;;;;4998373;28;20230;-84
2022/04/16 07:14:48;;;;;;;19.88;13.60;;;18.40;99.90;;;;;;4995020;28;20577;-83
2022/04/16 07:17:18;;;;;;;22.58;13.63;;;18.10;99.90;;;;;;5003196;28;20206;-82
2022/04/16 07:19:45;;;;;;;17.88;12.07;;;18.40;99.90;;;;;;4997417;28;20235;-83
2022/04/16 07:22:12;;;;;;;20.77;13.00;;;18.50;99.90;;;;;;5000656;28;20301;-86
2022/04/16 07:24:42;;;;;;;20.30;12.50;;;18.40;99.90;;;;;;4998401;28;20214;-84
2022/04/16 07:27:10;;;;;;;17.80;11.93;;;18.30;99.90;;;;;;4999906;28;20253;-82
2022/04/16 07:29:37;;;;;;;19.13;11.63;;;17.90;99.90;;;;;;5020697;28;20214;-84
2022/04/16 07:32:04;;;;;;;20.48;12.48;;;17.70;99.90;;;;;;5002090;28;20198;-83
2022/04/16 07:34:31;;;;;;;18.50;11.85;;;17.80;99.90;;;;;;5002039;28;20540;-85
2022/04/16 07:36:58;;;;;;;18.52;12.35;;;17.90;99.90;;;;;;4997553;28;20226;-84
2022/04/16 07:39:24;;;;;;;19.45;11.60;;;17.90;99.90;;;;;;4999064;28;20650;-82
2022/04/16 07:41:54;;;;;;;18.27;11.95;;;17.90;99.90;;;;;;5001266;28;20589;-84
2022/04/16 07:44:21;;;;;;;18.38;12.20;;;17.90;99.90;;;;;;5008635;28;20198;-84
2022/04/16 07:46:48;;;;;;;17.45;11.52;;;18.00;99.90;;;;;;5000278;28;20659;-83
2022/04/16 07:49:17;;;;;;;16.05;10.85;;;18.10;99.90;;;;;;5001618;28;20206;-85
2022/04/16 07:51:45;;;;;;;18.00;11.20;;;18.00;99.90;;;;;;5012745;28;20306;-85
2022/04/16 07:54:12;;;;;;;16.83;12.02;;;17.90;99.90;;;;;;5004206;28;20206;-83
2022/04/16 07:56:39;;;;;;;17.75;11.13;;;18.00;99.90;;;;;;5011628;28;20257;-87
2022/04/16 07:59:06;;;;;;;15.73;10.15;;;18.20;99.90;;;;;;5004033;28;20217;-86
2022/04/16 08:01:33;;;;;;;15.90;11.10;;;18.30;99.90;;;;;;5001452;28;20209;-86
2022/04/16 08:04:01;;;;;;;14.75;9.63;;;18.40;99.90;;;;;;5006730;28;20206;-85
2022/04/16 08:06:28;;;;;;;15.85;10.48;;;18.40;99.90;;;;;;5009806;28;20203;-84
2022/04/16 08:09:00;;;;;;;16.05;10.80;;;18.50;99.90;;;;;;5016300;28;20198;-85
2022/04/16 08:11:33;;;;;;;17.67;10.77;;;18.40;99.90;;;;;;5007619;28;20260;-85
2022/04/16 08:14:00;;;;;;;15.95;9.80;;;18.20;99.90;;;;;;5011529;28;20202;-83
2022/04/16 08:16:30;;;;;;;15.50;10.90;;;18.30;99.90;;;;;;5003791;28;20210;-84
2022/04/16 08:18:57;;;;;;;16.30;10.90;;;18.20;99.90;;;;;;5001275;28;20249;-84
2022/04/16 08:21:29;;;;;;;18.45;10.80;;;18.00;99.90;;;;;;4994949;28;20722;-82
2022/04/16 08:24:03;;;;;;;18.80;11.18;;;17.80;99.90;;;;;;4997727;28;20213;-85
2022/04/16 08:26:31;;;;;;;17.02;10.93;;;17.20;99.90;;;;;;4994738;28;20670;-84
2022/04/16 08:28:58;;;;;;;14.60;10.52;;;16.90;99.90;;;;;;4999459;28;20276;-85
2022/04/16 08:31:26;;;;;;;18.42;10.75;;;16.80;99.90;;;;;;5008524;28;20242;-85
2022/04/16 08:33:53;;;;;;;16.15;10.38;;;17.00;99.90;;;;;;4998987;28;20215;-86
2022/04/16 08:36:20;;;;;;;15.90;10.13;;;17.20;99.90;;;;;;4997620;28;20219;-85
2022/04/16 08:38:47;;;;;;;17.25;11.52;;;17.40;99.90;;;;;;5003877;28;20242;-84
2022/04/16 08:41:14;;;;;;;15.25;9.98;;;17.80;99.90;;;;;;5000449;28;20257;-86
2022/04/16 08:43:42;;;;;;;16.30;10.02;;;17.90;99.90;;;;;;5001728;28;20978;-85
2022/04/16 08:46:09;;;;;;;16.30;9.82;;;18.10;99.90;;;;;;5000074;28;20744;-85
2022/04/16 08:48:40;;;;;;;16.95;10.90;;;18.40;99.90;;;;;;5011841;28;21654;-86
2022/04/16 08:51:07;;;;;;;17.15;10.43;;;18.50;99.90;;;;;;5005858;28;20343;-87
2022/04/16 08:53:34;;;;;;;17.55;11.32;;;18.20;99.90;;;;;;5008830;28;20230;-86
2022/04/16 08:56:04;;;;;;;18.48;10.90;;;17.60;99.90;;;;;;5001817;28;20532;-84
2022/04/16 08:58:31;;;;;;;17.13;10.82;;;17.30;99.90;;;;;;5004102;28;20211;-84
2022/04/16 09:01:01;;;;;;;16.30;10.13;;;17.20;99.90;;;;;;5006895;28;20345;-83
2022/04/16 09:03:39;;;;;;;14.60;9.52;;;17.40;99.90;;;;;;5003415;28;20221;-85
2022/04/16 09:06:07;;;;;;;15.88;8.90;;;17.70;99.90;;;;;;4994240;28;20238;-84
2022/04/16 09:08:35;;;;;;;16.80;9.90;;;18.10;99.90;;;;;;4998997;28;20219;-86
2022/04/16 09:11:12;;;;;;;16.02;10.73;;;18.00;99.90;;;;;;5009287;28;20294;-89
2022/04/16 09:13:55;;;;;;;14.57;10.38;;;17.60;99.90;;;;;;5028095;28;20210;-88
2022/04/16 09:16:31;;;;;;;14.68;10.48;;;17.30;99.90;;;;;;4998715;28;20230;-89
2022/04/16 09:18:58;;;;;;;18.00;10.40;;;17.50;99.90;;;;;;5016125;28;20912;-89
2022/04/16 09:21:28;;;;;;;14.90;10.10;;;17.60;99.90;;;;;;5012056;28;20242;-89
2022/04/16 09:24:02;;;;;;;14.70;9.25;;;17.50;99.90;;;;;;5007137;28;20214;-89
2022/04/16 09:26:34;;;;;;;13.82;9.27;;;18.20;99.90;;;;;;5011849;28;20266;-90
2022/04/16 09:29:14;;;;;;;15.10;8.90;;;17.80;99.90;;;;;;5011783;28;20323;-87
2022/04/16 09:31:49;;;;;;;13.40;9.02;;;18.00;99.90;;;;;;5006860;28;20202;-90
2022/04/16 09:34:23;;;;;;;14.73;8.52;;;17.70;99.90;;;;;;5008292;28;21123;-90
2022/04/16 09:36:54;;;;;;;13.32;7.70;;;17.30;99.90;;;;;;5016395;28;20228;-89
2022/04/16 09:39:25;;;;;;;12.80;7.97;;;17.00;99.90;;;;;;5006795;28;20194;-87
2022/04/16 09:41:54;;;;;;;14.32;8.60;;;;;;;;;;5009701;28;20530;-88
2022/04/16 09:44:28;;;;;;;13.63;8.43;;;16.70;99.90;;;;;;5010038;28;20214;-89
2022/04/16 09:46:55;;;;;;;15.88;7.85;;;16.90;99.90;;;;;;4998041;28;20213;-90
2022/04/16 09:49:24;;;;;;;11.75;8.23;;;17.00;99.90;;;;;;5000163;28;20211;-90
2022/04/16 09:52:00;;;;;;;13.13;7.43;;;16.80;99.90;;;;;;5012166;28;20559;-90
2022/04/16 09:54:34;;;;;;;13.38;7.70;;;16.70;99.90;;;;;;5006808;28;20211;-90
2022/04/16 09:57:02;;;;;;;11.32;6.28;;;16.90;99.90;;;;;;5002455;28;20199;-87
2022/04/16 09:59:35;;;;;;;12.80;7.20;;;17.10;99.90;;;;;;5001972;28;20233;-88
2022/04/16 10:02:03;;;;;;;11.13;6.15;;;17.10;99.90;;;;;;5002120;28;20338;-92
2022/04/16 10:04:31;;;;;;;13.10;6.43;;;16.90;99.90;;;;;;5011331;28;20280;-87
2022/04/16 10:06:58;;;;;;;11.82;7.65;;;16.60;99.90;;;;;;5006300;28;20234;-88
2022/04/16 10:09:27;;;;;;;11.07;7.68;;;16.50;99.90;;;;;;5007931;28;20499;-87
2022/04/16 10:14:52;;;;;;;10.27;6.37;;;16.70;99.90;;;;;;5003572;28;20546;-81
2022/04/16 10:17:39;;;;;;;8.77;5.67;;;16.70;99.90;;;;;;4995787;28;20207;-82
2022/04/16 10:20:15;;;;;;;7.80;4.10;;;16.50;99.90;;;;;;5002508;28;20351;-91
2022/04/16 10:23:05;;;;;;;7.63;4.90;;;16.40;99.90;;;;;;5014409;28;20232;-90
2022/04/16 10:25:47;;;;;;;8.80;4.90;;;16.70;99.90;;;;;;5007780;28;20675;-90
2022/04/16 10:28:19;;;;;;;7.32;5.10;;;16.80;99.90;;;;;;5003050;28;20612;-89
2022/04/16 10:30:54;;;;;;;5.68;4.32;;;16.90;99.90;;;;;;5004199;28;20261;-90
2022/04/16 10:33:29;;;;;;;7.78;4.38;;;16.90;99.90;;;;;;5001446;28;20670;-89
2022/04/16 10:36:09;;;;;;;7.30;4.93;;;16.90;99.90;;;;;;5006244;28;20245;-90
2022/04/16 10:38:43;;;;;;;6.88;3.80;;;16.80;99.90;;;;;;5014582;28;20352;-88
2022/04/16 10:41:14;;;;;;;9.40;5.32;;;16.80;99.90;;;;;;5011115;28;20234;-88
2022/04/16 10:43:59;;;;;;;8.00;4.80;;;16.80;99.90;;;;;;5015658;28;20202;-89
2022/04/16 10:46:50;;;;;;;7.57;4.53;;;16.70;99.90;;;;;;5007098;28;20207;-87
2022/04/16 10:49:19;;;;;;;6.07;4.10;;;16.20;99.90;;;;;;5027207;28;20630;-86
2022/04/16 10:51:47;;;;;;;5.03;3.57;;;16.00;99.90;;;;;;5012291;28;20237;-88
2022/04/16 10:54:15;;;;;;;4.70;3.17;;;16.00;99.90;;;;;;5015700;28;20199;-87
2022/04/16 10:57:06;;;;;;;4.13;3.50;;;16.10;99.90;;;;;;5008717;28;20241;-88
2022/04/16 10:59:37;;;;;;;5.03;3.70;;;16.30;99.90;;;;;;5009245;28;20412;-90
2022/04/16 11:02:27;;;;;;;4.97;3.80;;;16.40;99.90;;;;;;5023040;28;20226;-89
2022/04/16 11:05:08;;;;;;;5.90;3.80;;;16.40;99.90;;;;;;5016443;28;20682;-90
2022/04/16 11:07:37;;;;;;;6.10;3.87;;;16.50;99.90;;;;;;5000322;28;20227;-89
2022/04/16 11:10:11;;;;;;;5.30;3.97;;;16.70;99.90;;;;;;5007309;28;20241;-89
2022/04/16 11:12:43;;;;;;;6.00;4.20;;;16.80;99.90;;;;;;5006592;28;20633;-88
2022/04/16 11:15:26;;;;;;;5.60;3.50;;;16.90;99.90;;;;;;5006556;28;20234;-90
2022/04/16 11:18:01;;;;;;;6.10;3.83;;;16.80;99.90;;;;;;5007233;28;20273;-89
2022/04/16 11:20:28;;;;;;;3.63;3.27;;;17.00;99.90;;;;;;5017890;28;20890;-91
2022/04/16 11:22:55;;;;;;;5.60;3.43;;;17.20;99.90;;;;;;4995060;28;20245;-90
2022/04/16 11:25:23;;;;;;;7.60;3.80;;;17.20;99.60;;;;;;5010840;28;20198;-89
2022/04/16 11:36:13;;;;;;;4.47;3.67;;;17.10;98.40;;;;;;5017666;28;20191;-89
2022/04/16 11:38:42;;;;;;;3.80;3.17;;;17.00;98.80;;;;;;5022108;28;20251;-89
2022/04/16 11:41:11;;;;;;;4.80;3.17;;;17.00;98.30;;;;;;5021661;28;20226;-90
2022/04/16 11:43:51;;;;;;;4.53;3.33;;;17.10;98.80;;;;;;5032572;28;20272;-89
2022/04/16 11:46:18;;;;;;;4.78;3.85;;;17.30;98.20;;;;;;5009536;28;20229;-89
2022/04/16 11:48:50;;;;;;;4.10;3.37;;;17.30;97.80;;;;;;5009037;28;20252;-90
2022/04/16 11:51:20;;;;;;;4.03;3.07;;;17.20;97.30;;;;;;5016439;28;20206;-90
2022/04/16 11:53:52;;;;;;;6.25;3.50;;;17.20;97.00;;;;;;5006155;28;20215;-87
2022/04/16 11:56:22;;;;;;;5.70;3.90;;;17.20;96.70;;;;;;5005584;28;20237;-85
2022/04/16 11:58:51;;;;;;;4.40;3.53;;;17.30;96.40;;;;;;4993280;28;20226;-84
2022/04/16 12:01:24;;;;;;;3.55;2.95;;;17.30;96.30;;;;;;4998029;28;20934;-85
2022/04/16 12:03:52;;;;;;;3.58;3.03;;;17.40;95.10;;;;;;4992727;28;20307;-83
2022/04/16 12:06:19;;;;;;;5.67;3.00;;;17.50;94.60;;;;;;4997949;28;20268;-85
2022/04/16 12:08:47;;;;;;;3.83;3.05;;;17.50;93.70;;;;;;4998712;28;20298;-84
2022/04/16 12:11:19;;;;;;;4.03;3.15;;;17.50;93.80;;;;;;4997955;28;20204;-89
2022/04/16 12:13:51;;;;;;;3.97;3.30;;;17.50;93.10;;;;;;5000109;28;20199;-87
2022/04/16 12:16:18;;;;;;;3.25;2.80;;;17.60;93.10;;;;;;5015884;28;20214;-87
2022/04/16 12:18:46;;;;;;;4.63;3.50;;;17.70;91.30;;;;;;5010318;28;20208;-87
2022/04/16 12:21:15;;;;;;;5.75;3.67;;;17.70;91.50;;;;;;5021096;28;20253;-87
2022/04/16 12:23:44;;;;;;;3.45;2.75;;;17.70;90.80;;;;;;5024048;28;20562;-87
2022/04/16 12:26:13;;;;;;;3.55;2.90;;;17.70;91.40;;;;;;5006630;28;20738;-87
2022/04/16 12:28:43;;;;;;;3.42;2.25;;;17.70;91.10;;;;;;5011977;28;20195;-88
2022/04/16 12:31:11;;;;;;;3.47;2.00;;;17.80;86.30;;;;;;5005549;28;20238;-91
2022/04/16 12:33:39;;;;;;;2.13;1.52;;;17.80;82.50;;;;;;5014291;28;20280;-87
2022/04/16 12:36:06;;;;;;;2.40;1.85;;;17.80;79.20;;;;;;5020927;28;20243;-86
2022/04/16 12:38:49;;;;;;;6.45;3.63;;;17.90;78.40;;;;;;5013002;28;20215;-88
2022/04/16 12:41:20;;;;;;;3.97;2.03;;;18.00;76.60;;;;;;5004013;28;20265;-86
2022/04/16 12:43:47;;;;;;;4.90;2.88;;;18.00;73.50;;;;;;5005626;28;20198;-84
2022/04/16 12:46:14;;;;;;;2.33;1.77;;;18.10;74.10;;;;;;5012684;28;20206;-87
2022/04/16 12:48:41;;;;;;;2.83;2.00;;;17.90;72.90;;;;;;5003371;28;20611;-86
2022/04/16 12:51:10;;;;;;;3.17;2.13;;;17.80;71.80;;;;;;5002470;28;20198;-85
2022/04/16 12:53:38;;;;;;;2.90;1.70;;;17.90;70.40;;;;;;5003246;28;20654;-86
2022/04/16 12:56:05;;;;;;;2.80;2.00;;;17.90;70.50;;;;;;5004185;28;20209;-86
2022/04/16 12:58:31;;;;;;;3.67;2.00;;;17.80;69.90;;;;;;5000237;28;20207;-88
2022/04/16 13:00:59;;;;;;;2.65;2.03;;;17.90;69.50;;;;;;5009355;28;20325;-88
2022/04/16 13:03:26;;;;;;;3.35;2.13;;;17.90;68.90;;;;;;5005513;28;20260;-89
2022/04/16 13:05:53;;;;;;;5.53;2.40;;;17.90;69.70;;;;;;5001415;28;20203;-89
2022/04/16 13:08:20;;;;;;;6.28;2.22;;;17.90;69.10;;;;;;5006419;28;20321;-85
2022/04/16 13:10:47;;;;;;;3.73;2.33;;;18.00;69.30;;;;;;4995292;28;20286;-88
2022/04/16 13:13:14;;;;;;;3.75;2.13;;;17.90;67.90;;;;;;5011090;28;20201;-87